Bookmark and Share
Track history (hours):
 

Mar Maria

Last reported at 2014-Apr-23 12:28 UTC. Time now 2014-Apr-23 13:15 UTC.
Position N 43°44' E 008°28'.

Length 103 m; draft 5.3 m.

Type: Tanker. MMSI: 256435000.

NotesDate/timePositionNaut miles runAvg speedWind from/ knotsBaromVisibWave heightAir tempDewpointWater temp
2014-Apr-23 12:28N 43°44' E 008°28'0 0.3
2014-Apr-23 11:31N 43°44' E 008°28'0 0.3
2014-Apr-23 10:25N 43°44' E 008°27'0 0.3
2014-Apr-23 09:19N 43°44' E 008°27'0 0.2
2014-Apr-23 08:31N 43°44' E 008°27'0 0.3
2014-Apr-23 07:28N 43°44' E 008°26'0 0.3
2014-Apr-23 06:28N 43°44' E 008°26'0 0.2
2014-Apr-23 05:25N 43°44' E 008°25'0 0.3
2014-Apr-23 04:31N 43°44' E 008°25'0 0.2
2014-Apr-23 03:31N 43°44' E 008°25'0 0.1
2014-Apr-23 02:31N 43°44' E 008°25'0 0.1
2014-Apr-23 01:31N 43°44' E 008°25'0 0.3
2014-Apr-23 00:31N 43°44' E 008°25'0 0.4
2014-Apr-22 23:31N 43°45' E 008°25'0 0.3
2014-Apr-22 22:31N 43°45' E 008°25'0 0.4
2014-Apr-22 21:31N 43°45' E 008°26'1 0.6
2014-Apr-22 20:31N 43°45' E 008°26'0 0.4
2014-Apr-22 19:28N 43°46' E 008°27'0 0.4
2014-Apr-22 18:28N 43°46' E 008°27'1 0.4
2014-Apr-22 17:10N 43°46' E 008°27'0 0.4
2014-Apr-22 16:28N 43°47' E 008°27'0 0.2
2014-Apr-22 14:13N 43°47' E 008°28'1 0.5
2014-Apr-22 12:25N 43°46' E 008°28'0 0.5
2014-Apr-22 11:31N 43°46' E 008°29'0 0.5
2014-Apr-22 10:28N 43°46' E 008°30'1 0.4
2014-Apr-22 09:16N 43°46' E 008°30'0 0.5
2014-Apr-22 08:25N 43°46' E 008°31'1 0.5
2014-Apr-22 07:25N 43°45' E 008°31'1 0.6
2014-Apr-22 06:16N 43°45' E 008°32'0 0.5
2014-Apr-22 05:31N 43°45' E 008°33'1 0.5
2014-Apr-22 03:31N 43°46' E 008°34'0 0.3
2014-Apr-22 02:31N 43°46' E 008°34'0 0.2
2014-Apr-22 01:31N 43°47' E 008°34'0 0.1
2014-Apr-22 00:31N 43°47' E 008°34'0 0.0
2014-Apr-21 23:31N 43°47' E 008°34'0 0.2
2014-Apr-21 22:31N 43°46' E 008°34'0 0.3
2014-Apr-21 21:31N 43°46' E 008°34'0 0.4
2014-Apr-21 20:31N 43°46' E 008°34'1 0.7
2014-Apr-21 19:31N 43°45' E 008°35'1 1.0
2014-Apr-21 18:31N 43°44' E 008°36'1 1.2
2014-Apr-21 17:31N 43°44' E 008°37'1 1.3
2014-Apr-21 16:31N 43°43' E 008°38'1 1.4
2014-Apr-21 15:31N 43°42' E 008°40'1 1.4
2014-Apr-21 14:31N 43°42' E 008°42'1 1.4
2014-Apr-21 13:31N 43°42' E 008°44'1 1.1
2014-Apr-21 12:31N 43°42' E 008°46'1 1.0
2014-Apr-21 11:31N 43°42' E 008°47'1 0.9
2014-Apr-21 10:31N 43°42' E 008°48'1 0.8
2014-Apr-21 09:31N 43°41' E 008°49'1 0.8
2014-Apr-21 08:31N 43°41' E 008°50'1 0.9
2014-Apr-21 07:28N 43°40' E 008°51'1 1.1
2014-Apr-21 06:31N 43°40' E 008°52'1 1.3
2014-Apr-21 05:25N 43°39' E 008°54'1 1.5
2014-Apr-21 04:31N 43°38' E 008°55'2 1.5
2014-Apr-21 03:31N 43°37' E 008°57'2 1.6
2014-Apr-21 02:31N 43°36' E 008°58'1 1.2
2014-Apr-21 01:31N 43°36' E 009°00'1 1.0
2014-Apr-21 00:31N 43°35' E 009°01'1 1.1
2014-Apr-20 23:31N 43°34' E 009°02'1 1.3
2014-Apr-20 22:31N 43°33' E 009°03'1 1.2
2014-Apr-20 21:33N 43°33' E 009°05'1 1.1
2014-Apr-20 20:33N 43°32' E 009°06'1 1.0
2014-Apr-20 19:33N 43°31' E 009°07'1 0.9
2014-Apr-20 18:33N 43°30' E 009°07'1 0.7
2014-Apr-20 17:30N 43°30' E 009°08'1 0.7
2014-Apr-20 16:33N 43°29' E 009°08'0 0.5
2014-Apr-20 15:33N 43°29' E 009°09'0 0.5
2014-Apr-20 14:33N 43°28' E 009°09'0 0.5
2014-Apr-20 13:33N 43°28' E 009°09'1 0.5
2014-Apr-20 12:33N 43°27' E 009°09'1 0.6
2014-Apr-20 11:30N 43°27' E 009°09'1 0.7
2014-Apr-20 10:33N 43°26' E 009°08'1 0.7
2014-Apr-20 09:33N 43°26' E 009°07'0 0.4
2014-Apr-20 08:33N 43°26' E 009°07'0 0.4
2014-Apr-20 07:33N 43°26' E 009°06'1 0.6
2014-Apr-20 06:33N 43°26' E 009°06'1 0.8
2014-Apr-20 05:33N 43°26' E 009°05'1 1.0
2014-Apr-20 04:30N 43°27' E 009°03'1 1.1
2014-Apr-20 03:33N 43°27' E 009°02'1 1.1
2014-Apr-20 02:33N 43°28' E 009°01'1 1.0
2014-Apr-20 01:33N 43°28' E 008°59'1 1.0
2014-Apr-20 00:33N 43°29' E 008°58'1 1.1
2014-Apr-19 23:33N 43°30' E 008°57'1 1.2
2014-Apr-19 22:33N 43°31' E 008°56'1 1.3
2014-Apr-19 21:33N 43°32' E 008°55'1 1.4
2014-Apr-19 20:33N 43°33' E 008°54'1 1.3
2014-Apr-19 19:33N 43°34' E 008°53'1 1.3
2014-Apr-19 18:33N 43°35' E 008°52'1 1.2
2014-Apr-19 17:33N 43°36' E 008°51'1 1.1
2014-Apr-19 16:32N 43°37' E 008°51'1 1.1
2014-Apr-19 15:31N 43°38' E 008°50'1 1.4
2014-Apr-19 14:33N 43°39' E 008°50'2 1.7
2014-Apr-19 13:33N 43°41' E 008°51'2 2.0
2014-Apr-19 12:34N 43°43' E 008°52'2 2.0
2014-Apr-19 11:34N 43°45' E 008°53'2 2.2
2014-Apr-19 10:33N 43°47' E 008°54'2 2.3
2014-Apr-19 09:33N 43°49' E 008°56'2 1.7
2014-Apr-19 08:33N 43°50' E 008°57'1 1.4
2014-Apr-19 07:33N 43°51' E 008°56'1 1.5
2014-Apr-19 06:32N 43°53' E 008°55'2 1.6
2014-Apr-19 05:33N 43°52' E 008°57'2 2.2
2014-Apr-19 04:33N 43°50' E 008°58'2 2.1
2014-Apr-19 03:33N 43°48' E 008°60'2 2.0
2014-Apr-19 02:32N 43°46' E 009°01'2 1.8
2014-Apr-19 01:31N 43°44' E 009°02'2 1.7
2014-Apr-19 00:28N 43°43' E 009°02'1 1.5
2014-Apr-18 23:31N 43°41' E 009°02'1 1.4
2014-Apr-18 22:33N 43°40' E 009°02'1 1.3
2014-Apr-18 21:33N 43°38' E 009°02'1 1.4
2014-Apr-18 20:33N 43°37' E 009°02'1 1.4
2014-Apr-18 19:32N 43°36' E 009°00'8 7.9
2014-Apr-18 18:33N 43°41' E 008°52'1111.3
2014-Apr-18 17:33N 43°51' E 008°44'1212.0
2014-Apr-18 16:33N 44°03' E 008°45'1312.6
2014-Apr-18 15:33N 44°15' E 008°45'1010.2
2014-Apr-18 14:33N 44°25' E 008°50'0 0.3
2014-Apr-18 13:33N 44°25' E 008°50'0 0.0
2014-Apr-18 05:31N 44°25' E 008°50'4 3.6
2014-Apr-18 04:28N 44°22' E 008°47'7 7.2
2014-Apr-18 03:33N 44°16' E 008°50'10 8.9
2014-Apr-18 02:29N 44°07' E 008°53'0 0.5
2014-Apr-18 01:32N 44°06' E 008°53'0 0.5
2014-Apr-18 00:32N 44°06' E 008°53'0 0.3
2014-Apr-17 23:32N 44°06' E 008°53'0 0.4
2014-Apr-17 22:29N 44°06' E 008°52'1 0.7
2014-Apr-17 21:29N 44°06' E 008°51'1 0.7
2014-Apr-17 20:22N 44°06' E 008°50'1 0.8
2014-Apr-17 19:33N 44°07' E 008°50'1212.3
2014-Apr-17 18:33N 44°19' E 008°50'1211.8
2014-Apr-17 17:33N 44°10' E 008°40'1312.9
2014-Apr-17 16:33N 43°60' E 008°29'1313.0
2014-Apr-17 15:33N 43°49' E 008°18'1312.6
2014-Apr-17 14:33N 43°41' E 008°05'1212.2
2014-Apr-17 13:33N 43°34' E 007°51'4012.4
2014-Apr-17 10:20N 43°09' E 007°08'1012.5
2014-Apr-17 09:32N 43°03' E 006°57'1613.0
2014-Apr-17 08:17N 42°53' E 006°40'912.5
2014-Apr-17 07:33N 42°48' E 006°30'1212.0
2014-Apr-17 06:33N 42°45' E 006°14'1211.8
2014-Apr-17 05:33N 42°43' E 005°58'1313.0
2014-Apr-17 04:33N 42°48' E 005°42'1312.5
2014-Apr-17 03:33N 42°53' E 005°26'2311.3
2014-Apr-17 01:33N 43°06' E 005°01'1212.4
2014-Apr-17 00:33N 43°18' E 004°59'6 5.7
2014-Apr-16 23:33N 43°24' E 004°60'0 0.0
2014-Apr-16 12:29N 43°24' E 004°60'3 2.6
2014-Apr-16 11:32N 43°25' E 004°57'0 0.1
2014-Apr-16 10:32N 43°25' E 004°57'0 0.0
2014-Apr-16 09:32N 43°25' E 004°57'0 0.0
2014-Apr-16 08:32N 43°25' E 004°57'0 0.0
2014-Apr-16 07:32N 43°25' E 004°57'0 0.0
2014-Apr-16 06:32N 43°25' E 004°57'0 0.0
2014-Apr-16 05:32N 43°25' E 004°57'0 0.0
2014-Apr-16 04:32N 43°25' E 004°57'0 0.0
2014-Apr-16 03:32N 43°25' E 004°57'0 0.0
2014-Apr-16 02:32N 43°25' E 004°57'0 0.0
2014-Apr-16 01:29N 43°25' E 004°57'0 0.0
2014-Apr-16 00:32N 43°25' E 004°57'0 0.0
2014-Apr-15 23:32N 43°25' E 004°57'0 0.0
2014-Apr-15 22:32N 43°25' E 004°57'0 0.0
2014-Apr-15 21:32N 43°25' E 004°57'0 0.0
2014-Apr-15 20:32N 43°25' E 004°57'0 0.0
2014-Apr-15 19:32N 43°25' E 004°57'0 0.0
2014-Apr-15 18:32N 43°25' E 004°57'0 0.0
2014-Apr-15 17:32N 43°25' E 004°57'0 0.0
2014-Apr-15 16:32N 43°25' E 004°57'0 0.0
2014-Apr-15 15:32N 43°25' E 004°57'0 0.0
2014-Apr-15 14:32N 43°25' E 004°57'0 0.0
2014-Apr-15 12:33N 43°25' E 004°57'0 0.0
2014-Apr-15 11:34N 43°25' E 004°57'8 7.6
2014-Apr-15 10:34N 43°17' E 004°60'1211.8
2014-Apr-15 09:33N 43°06' E 004°55'1110.9
2014-Apr-15 08:32N 42°57' E 004°45'2010.2
2014-Apr-15 06:32N 42°42' E 004°27'6911.5
2014-Apr-15 00:33N 41°51' E 003°25'1211.9
2014-Apr-14 23:33N 41°42' E 003°15'1313.0
2014-Apr-14 22:34N 41°31' E 003°05'1211.6
2014-Apr-14 21:33N 41°22' E 002°56'1212.0
2014-Apr-14 20:33N 41°12' E 002°47'1312.6
2014-Apr-14 19:34N 41°02' E 002°37'1212.2
2014-Apr-14 18:34N 40°52' E 002°28'1212.4
2014-Apr-14 17:34N 40°42' E 002°18'1313.0
2014-Apr-14 16:33N 40°31' E 002°08'1212.1
2014-Apr-14 15:34N 40°21' E 001°59'1211.8
2014-Apr-14 14:33N 40°11' E 001°50'1212.4
2014-Apr-14 13:34N 40°01' E 001°41'2512.6
2014-Apr-14 11:33N 39°41' E 001°21'2512.6
2014-Apr-14 09:34N 39°20' E 001°03'1313.3
2014-Apr-14 08:33N 39°09' E 000°53'  

Dump ship's entire track history

sailing weather and tide predictions

Mar Maria — 9HA2859 — position and weather